Time;durP1;ratioP1;P1;durP2;ratioP2;P2;SDS_P1;SDS_P2;PMS_P1;PMS_P2;Temp;Humidity;BMP_temperature;BMP_pressure;BME280_temperature;BME280_humidity;BME280_pressure;Samples;Min_cycle;Max_cycle;Signal;HPM_P1;HPM_P2
2022/12/21 00:00:20;;;;;;;108.10;23.70;;;;;;;;;;4950714;28;20062;-91
2022/12/21 00:02:46;;;;;;;75.72;21.23;;;;;;;;;;4993450;28;20077;-90
2022/12/21 00:05:12;;;;;;;102.60;21.35;;;;;;;;;;4966879;28;20038;-90
2022/12/21 00:07:38;;;;;;;78.22;22.38;;;;;;;;;;4979713;28;20043;-90
2022/12/21 00:10:04;;;;;;;81.75;20.65;;;;;;;;;;4973070;28;20034;-90
2022/12/21 00:12:30;;;;;;;62.10;18.48;;;;;;;;;;4950506;28;20073;-90
2022/12/21 00:14:56;;;;;;;79.75;20.48;;;;;;;;;;4966760;28;20473;-90
2022/12/21 00:17:22;;;;;;;89.85;20.48;;;;;;;;;;4953010;28;20042;-90
2022/12/21 00:19:48;;;;;;;95.43;23.38;;;;;;;;;;4965132;28;20031;-90
2022/12/21 00:22:14;;;;;;;121.78;22.83;;;;;;;;;;4960044;28;20039;-91
2022/12/21 00:24:40;;;;;;;95.32;22.73;;;;;;;;;;4969160;28;20053;-89
2022/12/21 00:27:06;;;;;;;81.82;17.40;;;;;;;;;;4966501;28;20031;-91
2022/12/21 00:29:33;;;;;;;117.95;22.70;;;;;;;;;;4949679;28;20041;-90
2022/12/21 00:31:59;;;;;;;203.95;30.45;;;;;;;;;;4961321;28;20378;-90
2022/12/21 00:34:25;;;;;;;169.77;24.45;;;;;;;;;;4948649;28;20167;-90
2022/12/21 00:36:51;;;;;;;170.98;25.52;;;;;;;;;;4962099;28;20526;-90
2022/12/21 00:39:18;;;;;;;233.32;30.55;;;;;;;;;;4978471;28;20067;-91
2022/12/21 00:41:44;;;;;;;196.52;20.15;;;;;;;;;;4963043;28;20027;-90
2022/12/21 00:44:10;;;;;;;280.52;28.88;;;;;;;;;;4963672;28;20109;-89
2022/12/21 00:46:42;;;;;;;181.80;25.45;;;;;;;;;;4961508;28;20059;-90
2022/12/21 00:49:09;;;;;;;172.50;24.80;;;;;;;;;;4993105;28;20533;-91
2022/12/21 00:51:36;;;;;;;212.25;22.60;;;;;;;;;;4958585;28;20061;-90
2022/12/21 00:54:02;;;;;;;173.15;25.00;;;;;;;;;;4945192;28;20062;-91
2022/12/21 00:56:28;;;;;;;157.32;24.13;;;;;;;;;;4948464;28;20071;-91
2022/12/21 00:58:54;;;;;;;148.18;22.38;;;;;;;;;;4961943;28;20035;-90
2022/12/21 01:01:25;;;;;;;143.60;21.25;;;;;;;;;;4950425;28;20041;-90
2022/12/21 01:03:52;;;;;;;169.07;25.05;;;;;;;;;;4961990;28;20058;-90
2022/12/21 01:06:19;;;;;;;164.30;22.50;;;;;;;;;;4975795;28;20031;-90
2022/12/21 01:08:45;;;;;;;121.95;20.88;;;;;;;;;;4968254;28;20335;-90
2022/12/21 01:11:12;;;;;;;138.30;21.55;;;;;;;;;;4976455;28;20031;-91
2022/12/21 01:13:38;;;;;;;165.27;21.73;;;;;;;;;;4956683;28;20038;-90
2022/12/21 01:16:10;;;;;;;136.30;19.67;;;;;;;;;;4965196;28;20529;-91
2022/12/21 01:18:36;;;;;;;105.40;17.45;;;;;;;;;;4965624;28;20470;-90
2022/12/21 01:21:02;;;;;;;112.00;14.68;;;;;;;;;;4945973;28;20035;-91
2022/12/21 01:23:28;;;;;;;140.95;20.42;;;;;;;;;;4949660;28;20039;-90
2022/12/21 01:25:54;;;;;;;164.45;20.63;;;;;;;;;;4962816;28;20062;-91
2022/12/21 01:28:20;;;;;;;96.30;17.20;;;;;;;;;;4966826;28;20041;-91
2022/12/21 01:30:46;;;;;;;161.27;22.63;;;;;;;;;;4950454;28;20042;-90
2022/12/21 01:33:16;;;;;;;137.32;20.13;;;;;;;;;;4951286;28;20067;-91
2022/12/21 01:35:43;;;;;;;143.70;22.30;;;;;;;;;;4946325;28;20143;-91
2022/12/21 01:38:10;;;;;;;132.60;21.50;;;;;;;;;;4965531;28;20090;-91
2022/12/21 01:40:36;;;;;;;137.45;19.98;;;;;;;;;;4962953;28;20614;-91
2022/12/21 01:43:14;;;;;;;197.30;26.83;;;;;;;;;;4966370;28;20038;-90
2022/12/21 01:45:40;;;;;;;127.22;22.13;;;;;;;;;;4975813;28;20052;-91
2022/12/21 01:48:09;;;;;;;68.15;15.05;;;;;;;;;;4947818;28;20536;-90
2022/12/21 01:50:39;;;;;;;156.60;23.05;;;;;;;;;;4961066;28;20073;-90
2022/12/21 01:53:11;;;;;;;73.25;15.45;;;;;;;;;;4976568;28;20058;-89
2022/12/21 01:55:38;;;;;;;78.95;17.30;;;;;;;;;;4980018;28;20319;-90
2022/12/21 01:58:06;;;;;;;66.55;13.75;;;;;;;;;;4992087;28;20068;-90
2022/12/21 02:00:32;;;;;;;94.80;16.77;;;;;;;;;;4991747;28;20166;-91
2022/12/21 02:03:00;;;;;;;84.70;14.18;;;;;;;;;;4969857;28;20478;-90
2022/12/21 02:05:26;;;;;;;82.63;14.00;;;;;;;;;;4973470;28;20030;-91
2022/12/21 02:07:54;;;;;;;95.93;13.82;;;;;;;;;;4987270;28;20089;-91
2022/12/21 02:10:20;;;;;;;201.65;23.25;;;;;;;;;;4991618;28;20077;-90
2022/12/21 02:12:47;;;;;;;88.65;16.98;;;;;;;;;;4960696;28;20053;-90
2022/12/21 02:15:13;;;;;;;131.75;16.58;;;;;;;;;;4978102;28;20030;-91
2022/12/21 02:17:51;;;;;;;169.27;19.27;;;;;;;;;;4973255;28;20100;-91
2022/12/21 02:20:36;;;;;;;93.75;16.25;;;;;;;;;;4989417;28;20034;-91
2022/12/21 02:23:18;;;;;;;140.80;20.08;;;;;;;;;;4987548;28;20037;-88
2022/12/21 02:25:56;;;;;;;154.93;19.23;;;;;;;;;;4986905;28;20425;-89
2022/12/21 02:28:31;;;;;;;147.55;17.63;;;;;;;;;;4988613;28;20041;-90
2022/12/21 02:31:20;;;;;;;117.77;17.23;;;;;;;;;;4991060;28;20037;-90
2022/12/21 02:33:57;;;;;;;146.90;18.10;;;;;;;;;;4978669;28;20607;-90
2022/12/21 02:36:27;;;;;;;155.75;18.10;;;;;;;;;;4980467;28;20034;-91
2022/12/21 02:39:05;;;;;;;174.02;19.70;;;;;;;;;;4987209;28;20061;-90
2022/12/21 02:41:47;;;;;;;142.32;18.38;;;;;;;;;;4992658;28;20576;-91
2022/12/21 02:44:16;;;;;;;124.65;14.77;;;;;;;;;;4987159;28;20030;-91
2022/12/21 02:47:01;;;;;;;128.55;17.05;;;;;;;;;;4973356;28;20165;-90
2022/12/21 02:49:29;;;;;;;121.57;13.80;;;;;;;;;;4989623;28;20037;-91
2022/12/21 02:52:04;;;;;;;108.75;16.13;;;;;;;;;;4982622;28;20481;-92
2022/12/21 02:54:46;;;;;;;145.40;15.43;;;;;;;;;;4979023;28;20061;-90
2022/12/21 02:57:12;;;;;;;51.63;10.20;;;;;;;;;;4964919;28;20516;-91
2022/12/21 02:59:45;;;;;;;110.63;15.38;;;;;;;;;;4961345;28;20110;-91
2022/12/21 03:02:29;;;;;;;163.27;20.35;;;;;;;;;;4982267;28;20333;-91
2022/12/21 03:05:15;;;;;;;192.55;19.90;;;;;;;;;;4979993;28;20031;-91
2022/12/21 03:07:51;;;;;;;133.70;16.25;;;;;;;;;;4980281;28;20398;-90
2022/12/21 03:10:17;;;;;;;106.03;14.77;;;;;;;;;;4982036;28;20232;-91
2022/12/21 03:12:54;;;;;;;105.68;14.43;;;;;;;;;;4984272;28;20089;-90
2022/12/21 03:15:29;;;;;;;122.65;14.77;;;;;;;;;;4982947;28;20452;-92
2022/12/21 03:17:59;;;;;;;104.88;15.45;;;;;;;;;;4969872;28;20042;-90
2022/12/21 03:20:31;;;;;;;78.50;11.57;;;;;;;;;;4968322;28;20062;-90
2022/12/21 03:23:05;;;;;;;108.63;13.23;;;;;;;;;;4970222;28;20019;-90
2022/12/21 03:25:37;;;;;;;114.28;13.52;;;;;;;;;;4983992;28;20035;-89
2022/12/21 03:28:08;;;;;;;184.52;16.15;;;;;;;;;;4971126;28;20050;-90
2022/12/21 03:30:40;;;;;;;117.43;14.15;;;;;;;;;;4954928;28;20098;-91
2022/12/21 03:33:07;;;;;;;111.80;10.85;;;;;;;;;;4965599;28;20458;-90
2022/12/21 03:35:46;;;;;;;168.55;17.27;;;;;;;;;;4973628;28;20023;-91
2022/12/21 03:38:38;;;;;;;155.23;14.98;;;;;;;;;;4971926;28;20160;-91
2022/12/21 03:41:09;;;;;;;124.38;12.07;;;;;;;;;;4959696;28;20421;-90
2022/12/21 03:43:35;;;;;;;69.30;10.20;;;;;;;;;;4982568;28;20684;-91
2022/12/21 03:46:03;;;;;;;93.82;9.18;;;;;;;;;;4977740;28;20027;-91
2022/12/21 03:48:35;;;;;;;102.15;10.82;;;;;;;;;;4953672;28;20041;-91
2022/12/21 03:51:04;;;;;;;47.95;7.57;;;;;;;;;;4963535;28;20034;-91
2022/12/21 03:53:38;;;;;;;115.28;14.07;;;;;;;;;;4961281;28;20039;-90
2022/12/21 03:56:06;;;;;;;73.03;10.05;;;;;;;;;;4979955;28;20502;-90
2022/12/21 03:58:33;;;;;;;85.68;10.05;;;;;;;;;;4969637;28;20039;-91
2022/12/21 04:01:02;;;;;;;158.07;16.23;;;;;;;;;;4963046;28;20603;-92
2022/12/21 04:03:32;;;;;;;66.88;10.35;;;;;;;;;;4965330;28;20056;-91
2022/12/21 04:06:00;;;;;;;114.38;10.88;;;;;;;;;;4959706;28;20019;-91
2022/12/21 04:08:26;;;;;;;88.25;8.85;;;;;;;;;;4966620;28;20502;-91
2022/12/21 04:10:52;;;;;;;42.75;6.75;;;;;;;;;;4964585;28;20364;-91
2022/12/21 04:13:18;;;;;;;120.63;14.70;;;;;;;;;;4965485;28;20726;-91
2022/12/21 04:21:13;;;;;;;135.32;14.25;;;;;;;;;;4966440;28;20042;-91
2022/12/21 04:29:08;;;;;;;154.10;14.52;;;;;;;;;;4968376;28;20173;-91
2022/12/21 04:31:34;;;;;;;136.55;14.35;;;;;;;;;;4966364;28;20046;-91
2022/12/21 04:34:00;;;;;;;112.72;13.18;;;;;;;;;;4952735;28;20052;-92
2022/12/21 04:39:11;;;;;;;103.97;11.45;;;;;;;;;;4968753;28;20054;-91
2022/12/21 04:41:37;;;;;;;103.75;12.68;;;;;;;;;;4953864;28;20023;-91
2022/12/21 04:44:03;;;;;;;103.25;13.35;;;;;;;;;;4962279;28;20126;-91
2022/12/21 04:46:29;;;;;;;73.78;10.18;;;;;;;;;;4948103;28;20038;-90
2022/12/21 04:48:55;;;;;;;62.67;8.07;;;;;;;;;;4948361;28;20067;-91
2022/12/21 04:51:22;;;;;;;80.72;9.52;;;;;;;;;;4949425;28;20039;-91
2022/12/21 04:53:48;;;;;;;93.68;11.85;;;;;;;;;;4962344;28;20550;-90
2022/12/21 04:56:15;;;;;;;99.20;13.18;;;;;;;;;;4966769;28;20038;-91
2022/12/21 04:58:41;;;;;;;127.90;12.13;;;;;;;;;;4962696;28;20039;-90
2022/12/21 05:01:11;;;;;;;96.25;12.35;;;;;;;;;;4949832;28;20054;-90
2022/12/21 05:03:37;;;;;;;98.63;11.20;;;;;;;;;;4947259;28;20163;-90
2022/12/21 05:06:03;;;;;;;81.05;10.35;;;;;;;;;;4952573;28;20474;-91
2022/12/21 05:08:30;;;;;;;135.68;13.82;;;;;;;;;;4964261;28;20482;-91
2022/12/21 05:10:56;;;;;;;90.05;9.77;;;;;;;;;;4965632;28;20442;-91
2022/12/21 05:13:22;;;;;;;115.45;12.98;;;;;;;;;;4944565;28;20034;-90
2022/12/21 05:15:48;;;;;;;81.07;12.32;;;;;;;;;;4957714;28;20090;-91
2022/12/21 05:18:14;;;;;;;75.95;9.07;;;;;;;;;;4947014;28;20479;-90
2022/12/21 05:20:40;;;;;;;106.47;10.48;;;;;;;;;;4961967;28;20082;-91
2022/12/21 05:23:06;;;;;;;144.75;12.00;;;;;;;;;;4950416;28;20043;-90
2022/12/21 05:25:32;;;;;;;88.07;10.43;;;;;;;;;;4965113;28;20038;-91
2022/12/21 05:27:59;;;;;;;198.65;16.30;;;;;;;;;;4969331;28;20486;-91
2022/12/21 05:30:25;;;;;;;86.15;10.07;;;;;;;;;;4960949;28;20398;-91
2022/12/21 05:32:51;;;;;;;132.88;12.88;;;;;;;;;;4951693;28;20039;-90
2022/12/21 05:35:17;;;;;;;166.15;15.48;;;;;;;;;;4966625;28;20026;-91
2022/12/21 05:37:43;;;;;;;139.30;13.00;;;;;;;;;;4953463;28;20122;-92
2022/12/21 05:40:09;;;;;;;52.70;6.18;;;;;;;;;;4971149;28;20080;-90
2022/12/21 05:42:35;;;;;;;101.13;9.68;;;;;;;;;;4970316;28;20027;-91
2022/12/21 05:45:01;;;;;;;130.38;11.82;;;;;;;;;;4971467;28;20041;-91
2022/12/21 05:47:27;;;;;;;123.60;12.70;;;;;;;;;;4969463;28;20035;-91
2022/12/21 05:49:53;;;;;;;98.55;16.58;;;;;;;;;;4956561;28;20050;-90
2022/12/21 05:52:20;;;;;;;43.95;7.03;;;;;;;;;;4955819;28;20496;-91
2022/12/21 05:54:46;;;;;;;92.88;11.13;;;;;;;;;;4972628;28;20145;-90
2022/12/21 05:57:12;;;;;;;109.47;11.15;;;;;;;;;;4953333;28;20121;-91
2022/12/21 05:59:38;;;;;;;106.30;10.25;;;;;;;;;;4950948;28;20498;-91
2022/12/21 06:02:04;;;;;;;94.57;11.32;;;;;;;;;;4951601;28;20035;-90
2022/12/21 06:04:30;;;;;;;121.25;10.10;;;;;;;;;;4965216;28;20038;-91
2022/12/21 06:06:56;;;;;;;125.35;12.20;;;;;;;;;;4949511;28;20027;-90
2022/12/21 06:09:23;;;;;;;90.43;10.77;;;;;;;;;;4952605;28;20031;-91
2022/12/21 06:11:49;;;;;;;91.55;10.98;;;;;;;;;;4967385;28;20498;-91
2022/12/21 06:14:15;;;;;;;84.00;11.13;;;;;;;;;;4966477;28;20042;-91
2022/12/21 06:16:41;;;;;;;108.60;11.75;;;;;;;;;;4968284;28;20046;-91
2022/12/21 06:19:07;;;;;;;71.90;8.75;;;;;;;;;;4950647;28;20034;-90
2022/12/21 06:21:34;;;;;;;105.80;11.52;;;;;;;;;;4955177;28;20046;-91
2022/12/21 06:24:00;;;;;;;176.82;15.65;;;;;;;;;;4966857;28;20027;-91
2022/12/21 06:26:26;;;;;;;89.68;13.02;;;;;;;;;;4967342;28;20031;-90
2022/12/21 06:28:53;;;;;;;118.10;13.23;;;;;;;;;;4970303;28;20038;-90
2022/12/21 06:31:19;;;;;;;113.82;12.20;;;;;;;;;;4969099;28;20105;-90
2022/12/21 06:33:46;;;;;;;96.63;13.05;;;;;;;;;;4968374;28;20648;-91
2022/12/21 06:36:12;;;;;;;122.28;13.48;;;;;;;;;;4969267;28;20066;-90
2022/12/21 06:38:39;;;;;;;116.90;14.38;;;;;;;;;;4973343;28;20042;-91
2022/12/21 06:41:06;;;;;;;78.85;10.70;;;;;;;;;;4964476;28;20557;-91
2022/12/21 06:43:33;;;;;;;99.50;13.23;;;;;;;;;;4970921;28;20035;-91
2022/12/21 06:46:00;;;;;;;91.45;12.32;;;;;;;;;;4966691;28;20533;-91
2022/12/21 06:48:27;;;;;;;97.85;12.80;;;;;;;;;;4965188;28;20064;-91
2022/12/21 06:50:53;;;;;;;70.53;11.45;;;;;;;;;;4967250;28;20050;-91
2022/12/21 06:53:20;;;;;;;95.75;13.15;;;;;;;;;;4961290;28;20035;-91
2022/12/21 06:55:46;;;;;;;146.73;16.65;;;;;;;;;;4963045;28;20142;-91
2022/12/21 06:58:13;;;;;;;98.70;12.77;;;;;;;;;;4968331;28;20122;-91
2022/12/21 07:00:39;;;;;;;105.03;14.98;;;;;;;;;;4959989;28;20101;-91
2022/12/21 07:03:05;;;;;;;124.65;14.45;;;;;;;;;;4952594;28;20027;-90
2022/12/21 07:05:31;;;;;;;127.25;16.08;;;;;;;;;;4984515;28;20059;-90
2022/12/21 07:07:57;;;;;;;164.27;17.98;;;;;;;;;;4963415;28;20027;-90
2022/12/21 07:10:23;;;;;;;115.50;14.68;;;;;;;;;;4963799;28;20023;-90
2022/12/21 07:12:49;;;;;;;135.73;14.93;;;;;;;;;;4947413;28;20122;-90
2022/12/21 07:15:15;;;;;;;120.10;16.42;;;;;;;;;;4947534;28;20042;-90
2022/12/21 07:17:41;;;;;;;136.93;14.32;;;;;;;;;;4935650;28;20494;-90
2022/12/21 07:20:07;;;;;;;107.50;12.82;;;;;;;;;;4947126;28;20066;-90
2022/12/21 07:22:34;;;;;;;142.77;19.48;;;;;;;;;;4950956;28;20490;-91
2022/12/21 07:25:00;;;;;;;72.22;12.63;;;;;;;;;;4946686;28;20045;-90
2022/12/21 07:27:26;;;;;;;89.88;13.77;;;;;;;;;;4934773;28;20118;-90
2022/12/21 07:29:52;;;;;;;163.10;18.80;;;;;;;;;;4931050;28;20059;-90
2022/12/21 07:32:18;;;;;;;168.00;19.20;;;;;;;;;;4947190;28;20038;-90
2022/12/21 07:34:44;;;;;;;105.10;15.68;;;;;;;;;;4949073;28;20034;-90
2022/12/21 07:37:10;;;;;;;126.40;19.38;;;;;;;;;;4930671;28;20039;-90
2022/12/21 07:39:36;;;;;;;90.38;15.65;;;;;;;;;;4938704;28;20138;-90
2022/12/21 07:42:02;;;;;;;141.32;19.90;;;;;;;;;;4945754;28;20205;-90
2022/12/21 07:44:28;;;;;;;115.88;17.10;;;;;;;;;;4931551;28;20028;-90
2022/12/21 07:46:54;;;;;;;64.03;11.88;;;;;;;;;;4946462;28;20077;-90
2022/12/21 07:49:21;;;;;;;111.28;19.83;;;;;;;;;;4968701;28;20061;-90
2022/12/21 07:51:47;;;;;;;113.18;18.50;;;;;;;;;;4952314;28;20031;-90
2022/12/21 07:54:14;;;;;;;150.73;21.48;;;;;;;;;;4932691;28;20110;-90
2022/12/21 07:56:40;;;;;;;79.72;16.10;;;;;;;;;;4935269;28;20049;-90
2022/12/21 07:59:06;;;;;;;111.78;21.15;;;;;;;;;;4941079;28;20135;-89
2022/12/21 08:01:32;;;;;;;82.25;12.70;;;;;;;;;;4934657;28;20326;-90
2022/12/21 08:03:59;;;;;;;93.10;17.65;;;;;;;;;;4933842;28;21419;-90
2022/12/21 08:06:25;;;;;;;90.95;17.05;;;;;;;;;;4934928;28;20082;-89
2022/12/21 08:08:51;;;;;;;104.93;15.55;;;;;;;;;;4946297;28;21353;-90
2022/12/21 08:11:19;;;;;;;64.65;13.02;;;;;;;;;;4936557;28;20506;-90
2022/12/21 08:13:45;;;;;;;85.07;16.40;;;;;;;;;;4944580;28;20031;-90
2022/12/21 08:16:12;;;;;;;79.32;17.50;;;;;;;;;;4939597;28;20533;-90
2022/12/21 08:18:38;;;;;;;92.22;17.70;;;;;;;;;;4966731;28;20526;-90
2022/12/21 08:21:04;;;;;;;130.00;22.15;;;;;;;;;;4934443;28;20372;-90
2022/12/21 08:23:30;;;;;;;19.35;6.05;;;;;;;;;;4953557;28;20035;-91
2022/12/21 08:26:08;;;;;;;102.78;19.77;;;;;;;;;;4953177;28;20271;-90
2022/12/21 08:28:34;;;;;;;128.93;21.33;;;;;;;;;;4946551;28;20023;-90
2022/12/21 08:31:14;;;;;;;89.43;17.30;;;;;;;;;;4933312;28;20039;-90
2022/12/21 08:33:42;;;;;;;100.80;16.90;;;;;;;;;;4962968;28;20126;-90
2022/12/21 08:36:26;;;;;;;67.13;14.88;;;;;;;;;;4948071;28;20156;-90
2022/12/21 08:38:53;;;;;;;68.78;15.02;;;;;;;;;;4932730;28;20118;-90
2022/12/21 08:41:19;;;;;;;64.70;14.65;;;;;;;;;;4945937;28;20478;-89
2022/12/21 08:43:45;;;;;;;85.93;9.02;;;;;;;;;;4946120;28;20050;-89
2022/12/21 08:46:12;;;;;;;34.10;6.45;;;;;;;;;;4933141;28;20031;-90
2022/12/21 08:48:46;;;;;;;97.00;17.52;;;;;;;;;;4966933;28;20085;-90
2022/12/21 08:51:12;;;;;;;99.85;19.02;;;;;;;;;;4947147;28;20458;-90
2022/12/21 08:53:38;;;;;;;80.95;14.30;;;;;;;;;;4952137;28;20035;-90
2022/12/21 08:56:05;;;;;;;63.03;13.18;;;;;;;;;;4966119;28;20086;-90
2022/12/21 08:58:31;;;;;;;110.95;19.73;;;;;;;;;;4949664;28;20061;-90
2022/12/21 09:00:57;;;;;;;69.10;14.52;;;;;;;;;;4935941;28;20146;-90
2022/12/21 09:03:23;;;;;;;87.78;16.92;;;;;;;;;;4934793;28;20038;-89
2022/12/21 09:05:57;;;;;;;101.55;19.88;;;;;;;;;;4935486;28;20566;-89
2022/12/21 09:08:23;;;;;;;71.00;15.27;;;;;;;;;;4951699;28;20497;-89
2022/12/21 09:10:50;;;;;;;100.78;17.90;;;;;;;;;;4954850;28;20039;-90
2022/12/21 09:13:16;;;;;;;98.95;20.90;;;;;;;;;;4941191;28;20449;-89
2022/12/21 09:15:42;;;;;;;62.17;14.40;;;;;;;;;;4955219;28;20537;-90
2022/12/21 09:18:11;;;;;;;103.93;22.25;;;;;;;;;;4953439;28;20031;-90
2022/12/21 09:20:38;;;;;;;96.35;21.75;;;;;;;;;;4952024;28;20023;-90
2022/12/21 09:23:04;;;;;;;76.32;18.00;;;;;;;;;;4941645;28;20125;-90
2022/12/21 09:25:30;;;;;;;83.38;17.38;;;;;;;;;;4936473;28;20039;-90
2022/12/21 09:28:00;;;;;;;88.55;18.33;;;;;;;;;;4952615;28;20138;-90
2022/12/21 09:30:26;;;;;;;47.15;11.95;;;;;;;;;;4954937;28;20081;-90
2022/12/21 09:32:52;;;;;;;67.50;15.07;;;;;;;;;;4952742;28;20521;-90
2022/12/21 09:35:18;;;;;;;85.72;19.02;;;;;;;;;;4936540;28;20133;-90
2022/12/21 09:37:44;;;;;;;50.63;13.57;;;;;;;;;;4943482;28;20081;-90
2022/12/21 09:40:11;;;;;;;83.30;20.98;;;;;;;;;;4948099;28;20069;-90
2022/12/21 09:42:56;;;;;;;67.70;19.35;;;;;;;;;;4963108;28;20058;-90
2022/12/21 09:45:40;;;;;;;20.05;6.60;;;;;;;;;;4964078;28;20617;-89
2022/12/21 09:48:18;;;;;;;62.67;13.55;;;;;;;;;;4945940;28;20035;-90
2022/12/21 09:50:54;;;;;;;96.13;21.42;;;;;;;;;;4953374;28;20065;-89
2022/12/21 09:53:22;;;;;;;67.55;17.05;;;;;;;;;;4949114;28;20031;-90
2022/12/21 09:55:51;;;;;;;57.38;13.50;;;;;;;;;;4962799;28;20588;-90
2022/12/21 09:58:20;;;;;;;47.67;11.15;;;;;;;;;;4945182;28;20042;-90
2022/12/21 10:00:49;;;;;;;86.88;16.70;;;;;;;;;;4926854;29;20048;-90
2022/12/21 10:03:21;;;;;;;78.93;18.95;;;;;;;;;;4932055;29;20031;-90
2022/12/21 10:05:47;;;;;;;84.20;19.10;;;;;;;;;;4949733;28;20260;-90
2022/12/21 10:08:19;;;;;;;75.22;17.35;;;;;;;;;;4924078;29;20488;-90
2022/12/21 10:10:45;;;;;;;96.68;19.58;;;;;;;;;;4953055;28;20039;-90
2022/12/21 10:13:34;;;;;;;66.47;17.30;;;;;;;;;;4936359;28;20053;-90
2022/12/21 10:16:03;;;;;;;22.35;7.35;;;;;;;;;;4952506;28;20022;-90
2022/12/21 10:18:37;;;;;;;70.65;17.80;;;;;;;;;;4939925;29;20036;-90
2022/12/21 10:21:12;;;;;;;47.28;12.82;;;;;;;;;;4943032;28;20027;-90
2022/12/21 10:23:41;;;;;;;48.78;13.43;;;;;;;;;;4945737;28;20027;-90
2022/12/21 10:26:10;;;;;;;57.03;15.52;;;;;;;;;;4949451;28;20019;-89
2022/12/21 10:28:55;;;;;;;73.55;18.77;;;;;;;;;;4937242;28;20035;-90
2022/12/21 10:31:28;;;;;;;81.25;18.85;;;;;;;;;;4940605;28;20031;-90
2022/12/21 10:33:56;;;;;;;84.13;17.98;;;;;;;;;;4941297;28;20027;-90
2022/12/21 10:36:24;;;;;;;27.25;9.95;;;;;;;;;;4925546;28;20103;-90
2022/12/21 10:38:50;;;;;;;48.17;11.63;;;;;;;;;;4941357;28;20478;-89
2022/12/21 10:41:19;;;;;;;50.70;16.25;;;;;;;;;;4942821;28;20027;-90
2022/12/21 10:43:48;;;;;;;50.95;11.68;;;;;;;;;;4960072;28;20037;-90
2022/12/21 10:46:14;;;;;;;57.45;15.48;;;;;;;;;;4949288;28;20024;-90
2022/12/21 10:48:40;;;;;;;61.72;16.90;;;;;;;;;;4941678;28;20034;-90
2022/12/21 10:51:16;;;;;;;37.17;12.88;;;;;;;;;;4926212;28;20039;-90
2022/12/21 10:53:56;;;;;;;22.77;7.72;;;;;;;;;;4932887;28;20397;-90
2022/12/21 10:56:23;;;;;;;28.30;10.32;;;;;;;;;;4964022;28;20047;-90
2022/12/21 10:58:53;;;;;;;25.30;9.32;;;;;;;;;;4948236;28;20047;-90
2022/12/21 11:01:26;;;;;;;25.25;10.10;;;;;;;;;;4951877;28;20035;-90
2022/12/21 11:04:09;;;;;;;31.02;12.23;;;;;;;;;;4966562;28;20089;-90
2022/12/21 11:06:36;;;;;;;26.58;10.57;;;;;;;;;;4966332;28;20030;-90
2022/12/21 11:09:02;;;;;;;19.70;7.75;;;;;;;;;;4957892;28;20066;-90
2022/12/21 11:11:32;;;;;;;37.38;12.20;;;;;;;;;;4954607;28;20043;-89
2022/12/21 11:14:00;;;;;;;32.67;10.93;;;;;;;;;;4948872;28;20035;-90
2022/12/21 11:16:28;;;;;;;15.60;6.45;;;;;;;;;;4953994;28;20043;-90
2022/12/21 11:18:57;;;;;;;23.25;7.72;;;;;;;;;;4943712;28;20027;-90
2022/12/21 11:21:35;;;;;;;31.98;12.73;;;;;;;;;;4953511;28;20162;-90
2022/12/21 11:24:05;;;;;;;44.50;13.60;;;;;;;;;;4949189;28;20026;-90
2022/12/21 11:26:35;;;;;;;30.83;9.50;;;;;;;;;;4950412;28;20084;-90
2022/12/21 11:29:03;;;;;;;33.58;10.70;;;;;;;;;;4942210;28;20601;-90
2022/12/21 11:31:29;;;;;;;37.92;13.63;;;;;;;;;;4950067;28;20041;-91
2022/12/21 11:33:56;;;;;;;33.67;12.55;;;;;;;;;;4957557;28;20030;-90
2022/12/21 11:36:22;;;;;;;40.10;12.70;;;;;;;;;;4945925;28;22146;-89
2022/12/21 11:38:48;;;;;;;31.38;7.45;;;;;;;;;;4955831;28;20503;-90
2022/12/21 11:41:27;;;;;;;44.20;14.98;;;;;;;;;;4964604;28;20041;-90
2022/12/21 11:43:54;;;;;;;38.63;12.00;;;;;;;;;;4949076;28;20030;-90
2022/12/21 11:46:32;;;;;;;29.45;10.77;;;;;;;;;;4940436;28;20653;-90
2022/12/21 11:49:04;;;;;;;45.33;13.35;;;;;;;;;;4944986;28;20603;-90
2022/12/21 11:51:40;;;;;;;25.17;8.50;;;;;;;;;;4972897;28;20037;-90
2022/12/21 11:54:06;;;;;;;39.53;11.55;;;;;;;;;;4968108;28;20113;-90
2022/12/21 11:56:51;;;;;;;34.40;11.43;;;;;;;;;;4948117;28;20089;-90
2022/12/21 11:59:17;;;;;;;30.60;11.43;;;;;;;;;;4966485;28;20498;-90
2022/12/21 12:02:02;;;;;;;26.60;10.15;;;;;;;;;;4971866;28;20061;-90
2022/12/21 12:04:28;;;;;;;30.55;9.32;;;;;;;;;;4953123;28;20034;-90
2022/12/21 12:06:57;;;;;;;39.03;12.88;;;;;;;;;;4946222;28;20099;-90
2022/12/21 12:09:30;;;;;;;37.47;10.05;;;;;;;;;;4969929;28;20026;-90
2022/12/21 12:11:59;;;;;;;40.63;11.13;;;;;;;;;;4958630;28;20038;-88
2022/12/21 12:14:41;;;;;;;32.42;9.57;;;;;;;;;;4957083;28;20418;-90
2022/12/21 12:17:18;;;;;;;39.53;11.82;;;;;;;;;;4953806;28;20514;-89
2022/12/21 12:19:44;;;;;;;32.05;11.00;;;;;;;;;;4952199;28;20058;-90
2022/12/21 12:22:35;;;;;;;17.88;7.43;;;;;;;;;;4956408;28;20039;-89
2022/12/21 12:25:10;;;;;;;32.38;11.10;;;;;;;;;;4958915;28;20031;-89
2022/12/21 12:27:55;;;;;;;26.57;9.73;;;;;;;;;;4955714;28;20368;-91
2022/12/21 12:30:24;;;;;;;30.90;10.45;;;;;;;;;;4966815;28;20286;-91
2022/12/21 12:33:10;;;;;;;26.90;9.15;;;;;;;;;;4943896;28;20864;-91
2022/12/21 12:35:45;;;;;;;43.90;11.68;;;;;;;;;;4962576;28;20026;-91
2022/12/21 12:38:34;;;;;;;32.53;9.77;;;;;;;;;;4947211;28;20109;-92
2022/12/21 12:41:13;;;;;;;35.90;8.77;;;;;;;;;;4950173;28;20497;-91
2022/12/21 12:43:58;;;;;;;41.75;10.75;;;;;;;;;;4949502;28;20125;-91
2022/12/21 12:46:44;;;;;;;35.72;9.45;;;;;;;;;;4943597;28;20312;-91
2022/12/21 12:49:29;;;;;;;33.08;9.65;;;;;;;;;;4963441;28;20378;-90
2022/12/21 12:52:04;;;;;;;24.45;7.85;;;;;;;;;;4948632;28;20034;-91
2022/12/21 12:54:39;;;;;;;30.42;10.25;;;;;;;;;;4961624;28;20031;-91
2022/12/21 12:57:11;;;;;;;26.38;8.57;;;;;;;;;;4965145;28;20051;-91
2022/12/21 12:59:57;;;;;;;32.50;11.30;;;;;;;;;;4967504;28;20030;-91
2022/12/21 13:02:26;;;;;;;36.33;10.73;;;;;;;;;;4971981;28;20121;-91
2022/12/21 13:05:05;;;;;;;33.65;13.32;;;;;;;;;;4977770;28;20045;-91
2022/12/21 13:07:31;;;;;;;40.60;12.20;;;;;;;;;;4974770;28;20039;-91
2022/12/21 13:10:06;;;;;;;35.40;10.50;;;;;;;;;;4967360;28;20537;-91
2022/12/21 13:12:35;;;;;;;28.63;10.93;;;;;;;;;;4987839;28;20049;-91
2022/12/21 13:15:09;;;;;;;36.00;11.15;;;;;;;;;;4984248;28;20394;-91
2022/12/21 13:17:39;;;;;;;34.10;9.48;;;;;;;;;;4976464;28;20038;-91
2022/12/21 13:20:08;;;;;;;29.38;11.32;;;;;;;;;;4980981;28;20668;-91
2022/12/21 13:22:36;;;;;;;32.55;11.65;;;;;;;;;;4982104;28;20030;-92
2022/12/21 13:25:18;;;;;;;37.08;11.45;;;;;;;;;;4966736;28;20118;-91
2022/12/21 13:27:45;;;;;;;40.45;12.02;;;;;;;;;;4966550;28;20038;-91
2022/12/21 13:30:14;;;;;;;17.98;6.63;;;;;;;;;;4987089;28;20434;-91
2022/12/21 13:32:42;;;;;;;37.05;12.60;;;;;;;;;;4977103;28;20056;-91
2022/12/21 13:35:14;;;;;;;39.00;9.82;;;;;;;;;;4965961;28;20026;-91
2022/12/21 13:37:41;;;;;;;23.98;7.47;;;;;;;;;;4984391;28;20125;-91
2022/12/21 13:40:13;;;;;;;44.20;13.30;;;;;;;;;;4974982;28;20038;-91
2022/12/21 13:42:47;;;;;;;25.13;10.25;;;;;;;;;;4981390;28;20547;-91
2022/12/21 13:45:13;;;;;;;49.30;12.70;;;;;;;;;;4962435;28;20113;-91
2022/12/21 13:47:39;;;;;;;38.78;12.40;;;;;;;;;;4980306;28;20114;-93
2022/12/21 13:50:16;;;;;;;21.15;7.90;;;;;;;;;;4951649;28;20039;-91
2022/12/21 13:52:48;;;;;;;44.63;13.18;;;;;;;;;;4979035;28;20132;-91
2022/12/21 13:55:17;;;;;;;39.50;12.60;;;;;;;;;;4978542;28;20080;-90
2022/12/21 13:57:59;;;;;;;36.85;13.50;;;;;;;;;;4981849;28;20055;-91
2022/12/21 14:00:26;;;;;;;32.45;11.13;;;;;;;;;;4962864;28;20488;-91
2022/12/21 14:02:52;;;;;;;36.22;14.60;;;;;;;;;;4964470;28;20023;-91
2022/12/21 14:05:29;;;;;;;33.55;11.25;;;;;;;;;;4960477;28;20038;-90
2022/12/21 14:08:05;;;;;;;34.60;13.35;;;;;;;;;;4959671;28;20030;-91
2022/12/21 14:10:37;;;;;;;40.83;13.52;;;;;;;;;;4964695;28;20759;-91
2022/12/21 14:13:29;;;;;;;38.15;13.70;;;;;;;;;;4962836;28;20039;-91
2022/12/21 14:16:00;;;;;;;21.15;9.63;;;;;;;;;;4963474;28;20046;-90
2022/12/21 14:18:33;;;;;;;28.95;12.13;;;;;;;;;;4966361;28;20462;-91
2022/12/21 14:21:07;;;;;;;21.23;11.20;;;;;;;;;;4963330;28;20037;-91
2022/12/21 14:23:34;;;;;;;41.05;14.05;;;;;;;;;;4968539;28;20089;-90
2022/12/21 14:26:01;;;;;;;30.02;12.10;;;;;;;;;;4964720;28;20043;-92
2022/12/21 14:28:44;;;;;;;36.92;13.55;;;;;;;;;;4970565;28;20113;-90
2022/12/21 14:31:10;;;;;;;39.08;14.57;;;;;;;;;;4967946;28;20046;-90
2022/12/21 14:33:41;;;;;;;40.65;14.10;;;;;;;;;;4972597;28;20035;-90
2022/12/21 14:36:30;;;;;;;33.15;13.00;;;;;;;;;;4962610;28;20285;-90
2022/12/21 14:39:00;;;;;;;26.73;10.60;;;;;;;;;;4963519;28;20391;-90
2022/12/21 14:41:32;;;;;;;32.63;12.32;;;;;;;;;;4967801;28;20049;-90